sensor_id;sensor_type;location;lat;lon;timestamp;P1;durP1;ratioP1;P2;durP2;ratioP2
18174;SDS011;9212;50.894;16.714;2022-10-16T00:00:07;9.47;;;5.00;;
18174;SDS011;9212;50.894;16.714;2022-10-16T00:02:35;13.63;;;5.40;;
18174;SDS011;9212;50.894;16.714;2022-10-16T00:05:04;19.43;;;5.60;;
18174;SDS011;9212;50.894;16.714;2022-10-16T00:07:31;5.90;;;4.80;;
18174;SDS011;9212;50.894;16.714;2022-10-16T00:09:59;10.93;;;5.87;;
18174;SDS011;9212;50.894;16.714;2022-10-16T00:12:26;9.60;;;5.53;;
18174;SDS011;9212;50.894;16.714;2022-10-16T00:14:54;11.50;;;5.30;;
18174;SDS011;9212;50.894;16.714;2022-10-16T00:17:21;7.13;;;5.27;;
18174;SDS011;9212;50.894;16.714;2022-10-16T00:19:48;9.00;;;4.93;;
18174;SDS011;9212;50.894;16.714;2022-10-16T00:22:17;9.87;;;5.50;;
18174;SDS011;9212;50.894;16.714;2022-10-16T00:24:44;10.03;;;5.60;;
18174;SDS011;9212;50.894;16.714;2022-10-16T00:27:12;8.03;;;5.33;;
18174;SDS011;9212;50.894;16.714;2022-10-16T00:29:39;8.10;;;5.30;;
18174;SDS011;9212;50.894;16.714;2022-10-16T00:32:06;6.53;;;4.83;;
18174;SDS011;9212;50.894;16.714;2022-10-16T00:34:34;13.83;;;5.43;;
18174;SDS011;9212;50.894;16.714;2022-10-16T00:37:02;6.80;;;5.20;;
18174;SDS011;9212;50.894;16.714;2022-10-16T00:39:30;5.90;;;4.57;;
18174;SDS011;9212;50.894;16.714;2022-10-16T00:41:58;6.30;;;4.80;;
18174;SDS011;9212;50.894;16.714;2022-10-16T00:44:45;7.20;;;4.60;;
18174;SDS011;9212;50.894;16.714;2022-10-16T00:47:18;7.10;;;4.60;;
18174;SDS011;9212;50.894;16.714;2022-10-16T00:49:47;9.27;;;4.93;;
18174;SDS011;9212;50.894;16.714;2022-10-16T00:52:17;6.23;;;4.43;;
18174;SDS011;9212;50.894;16.714;2022-10-16T00:54:46;5.27;;;4.00;;
18174;SDS011;9212;50.894;16.714;2022-10-16T00:57:15;8.27;;;4.23;;
18174;SDS011;9212;50.894;16.714;2022-10-16T00:59:43;11.50;;;4.37;;
18174;SDS011;9212;50.894;16.714;2022-10-16T01:02:12;11.00;;;4.90;;
18174;SDS011;9212;50.894;16.714;2022-10-16T01:04:41;6.00;;;4.33;;
18174;SDS011;9212;50.894;16.714;2022-10-16T01:07:12;6.93;;;4.53;;
18174;SDS011;9212;50.894;16.714;2022-10-16T01:09:54;8.13;;;4.57;;
18174;SDS011;9212;50.894;16.714;2022-10-16T01:12:34;12.17;;;4.80;;
18174;SDS011;9212;50.894;16.714;2022-10-16T01:15:08;6.30;;;4.20;;
18174;SDS011;9212;50.894;16.714;2022-10-16T01:17:41;6.23;;;4.57;;
18174;SDS011;9212;50.894;16.714;2022-10-16T01:20:17;9.57;;;4.30;;
18174;SDS011;9212;50.894;16.714;2022-10-16T01:26:07;7.37;;;3.87;;
18174;SDS011;9212;50.894;16.714;2022-10-16T01:28:43;6.70;;;4.10;;
18174;SDS011;9212;50.894;16.714;2022-10-16T01:31:17;4.97;;;3.83;;
18174;SDS011;9212;50.894;16.714;2022-10-16T01:33:46;7.07;;;3.93;;
18174;SDS011;9212;50.894;16.714;2022-10-16T01:36:16;11.07;;;3.87;;
18174;SDS011;9212;50.894;16.714;2022-10-16T01:38:47;6.27;;;3.80;;
18174;SDS011;9212;50.894;16.714;2022-10-16T01:41:21;8.70;;;3.90;;
18174;SDS011;9212;50.894;16.714;2022-10-16T01:43:56;5.73;;;4.03;;
18174;SDS011;9212;50.894;16.714;2022-10-16T01:46:27;11.50;;;3.97;;
18174;SDS011;9212;50.894;16.714;2022-10-16T01:48:56;9.03;;;4.57;;
18174;SDS011;9212;50.894;16.714;2022-10-16T01:51:25;5.43;;;3.70;;
18174;SDS011;9212;50.894;16.714;2022-10-16T01:53:54;7.80;;;4.20;;
18174;SDS011;9212;50.894;16.714;2022-10-16T01:56:24;9.00;;;3.40;;
18174;SDS011;9212;50.894;16.714;2022-10-16T01:58:54;8.00;;;4.10;;
18174;SDS011;9212;50.894;16.714;2022-10-16T02:01:31;6.77;;;4.10;;
18174;SDS011;9212;50.894;16.714;2022-10-16T02:04:02;5.63;;;4.33;;
18174;SDS011;9212;50.894;16.714;2022-10-16T02:06:35;16.70;;;3.87;;
18174;SDS011;9212;50.894;16.714;2022-10-16T02:09:02;8.60;;;4.33;;
18174;SDS011;9212;50.894;16.714;2022-10-16T02:11:30;7.63;;;4.27;;
18174;SDS011;9212;50.894;16.714;2022-10-16T02:14:00;7.17;;;4.27;;
18174;SDS011;9212;50.894;16.714;2022-10-16T02:16:33;10.63;;;5.10;;
18174;SDS011;9212;50.894;16.714;2022-10-16T02:19:03;7.80;;;4.27;;
18174;SDS011;9212;50.894;16.714;2022-10-16T02:21:33;9.63;;;4.73;;
18174;SDS011;9212;50.894;16.714;2022-10-16T02:24:07;7.93;;;4.47;;
18174;SDS011;9212;50.894;16.714;2022-10-16T02:26:39;8.17;;;5.17;;
18174;SDS011;9212;50.894;16.714;2022-10-16T02:29:14;9.50;;;4.93;;
18174;SDS011;9212;50.894;16.714;2022-10-16T02:31:45;9.80;;;5.17;;
18174;SDS011;9212;50.894;16.714;2022-10-16T02:34:16;10.17;;;4.23;;
18174;SDS011;9212;50.894;16.714;2022-10-16T02:36:47;10.03;;;4.90;;
18174;SDS011;9212;50.894;16.714;2022-10-16T02:39:16;5.63;;;4.33;;
18174;SDS011;9212;50.894;16.714;2022-10-16T02:41:45;12.80;;;4.77;;
18174;SDS011;9212;50.894;16.714;2022-10-16T02:44:14;6.13;;;4.23;;
18174;SDS011;9212;50.894;16.714;2022-10-16T02:46:41;11.97;;;5.00;;
18174;SDS011;9212;50.894;16.714;2022-10-16T02:49:08;11.33;;;4.80;;
18174;SDS011;9212;50.894;16.714;2022-10-16T02:51:35;11.47;;;4.40;;
18174;SDS011;9212;50.894;16.714;2022-10-16T02:54:03;8.63;;;4.57;;
18174;SDS011;9212;50.894;16.714;2022-10-16T02:56:30;6.73;;;4.47;;
18174;SDS011;9212;50.894;16.714;2022-10-16T02:58:57;5.90;;;4.37;;
18174;SDS011;9212;50.894;16.714;2022-10-16T03:01:26;8.60;;;4.27;;
18174;SDS011;9212;50.894;16.714;2022-10-16T03:03:53;10.93;;;4.77;;
18174;SDS011;9212;50.894;16.714;2022-10-16T03:06:20;7.23;;;4.17;;
18174;SDS011;9212;50.894;16.714;2022-10-16T03:08:47;8.50;;;5.57;;
18174;SDS011;9212;50.894;16.714;2022-10-16T03:11:15;9.13;;;5.03;;
18174;SDS011;9212;50.894;16.714;2022-10-16T03:13:42;8.70;;;4.90;;
18174;SDS011;9212;50.894;16.714;2022-10-16T03:16:09;11.77;;;5.47;;
18174;SDS011;9212;50.894;16.714;2022-10-16T03:18:38;6.43;;;4.50;;
18174;SDS011;9212;50.894;16.714;2022-10-16T03:21:05;7.90;;;4.20;;
18174;SDS011;9212;50.894;16.714;2022-10-16T03:23:32;6.67;;;4.13;;
18174;SDS011;9212;50.894;16.714;2022-10-16T03:25:59;6.00;;;4.90;;
18174;SDS011;9212;50.894;16.714;2022-10-16T03:28:26;8.63;;;4.70;;
18174;SDS011;9212;50.894;16.714;2022-10-16T03:30:53;5.77;;;4.17;;
18174;SDS011;9212;50.894;16.714;2022-10-16T03:33:21;7.00;;;4.40;;
18174;SDS011;9212;50.894;16.714;2022-10-16T03:35:53;9.10;;;4.23;;
18174;SDS011;9212;50.894;16.714;2022-10-16T03:38:21;9.13;;;4.20;;
18174;SDS011;9212;50.894;16.714;2022-10-16T03:40:48;6.43;;;4.10;;
18174;SDS011;9212;50.894;16.714;2022-10-16T03:43:15;9.20;;;3.80;;
18174;SDS011;9212;50.894;16.714;2022-10-16T03:45:42;8.23;;;3.97;;
18174;SDS011;9212;50.894;16.714;2022-10-16T03:48:09;9.63;;;4.17;;
18174;SDS011;9212;50.894;16.714;2022-10-16T03:50:37;6.83;;;3.63;;
18174;SDS011;9212;50.894;16.714;2022-10-16T03:53:06;4.83;;;3.40;;
18174;SDS011;9212;50.894;16.714;2022-10-16T03:55:33;7.13;;;3.80;;
18174;SDS011;9212;50.894;16.714;2022-10-16T03:58:00;8.27;;;3.87;;
18174;SDS011;9212;50.894;16.714;2022-10-16T04:00:27;5.70;;;3.93;;
18174;SDS011;9212;50.894;16.714;2022-10-16T04:02:54;12.87;;;4.43;;
18174;SDS011;9212;50.894;16.714;2022-10-16T04:05:22;7.07;;;4.53;;
18174;SDS011;9212;50.894;16.714;2022-10-16T04:07:49;9.37;;;4.43;;
18174;SDS011;9212;50.894;16.714;2022-10-16T04:10:18;5.33;;;3.87;;
18174;SDS011;9212;50.894;16.714;2022-10-16T04:12:45;5.57;;;4.00;;
18174;SDS011;9212;50.894;16.714;2022-10-16T04:15:12;5.13;;;3.83;;
18174;SDS011;9212;50.894;16.714;2022-10-16T04:17:39;4.90;;;3.90;;
18174;SDS011;9212;50.894;16.714;2022-10-16T04:20:07;10.20;;;3.87;;
18174;SDS011;9212;50.894;16.714;2022-10-16T04:22:34;8.63;;;4.17;;
18174;SDS011;9212;50.894;16.714;2022-10-16T04:25:01;4.27;;;3.27;;
18174;SDS011;9212;50.894;16.714;2022-10-16T04:27:30;5.27;;;3.90;;
18174;SDS011;9212;50.894;16.714;2022-10-16T04:29:57;10.67;;;4.50;;
18174;SDS011;9212;50.894;16.714;2022-10-16T04:32:25;9.00;;;3.40;;
18174;SDS011;9212;50.894;16.714;2022-10-16T04:34:52;5.80;;;3.93;;
18174;SDS011;9212;50.894;16.714;2022-10-16T04:37:23;5.33;;;3.50;;
18174;SDS011;9212;50.894;16.714;2022-10-16T04:39:51;7.63;;;3.50;;
18174;SDS011;9212;50.894;16.714;2022-10-16T04:42:18;7.13;;;3.50;;
18174;SDS011;9212;50.894;16.714;2022-10-16T04:44:46;9.63;;;4.00;;
18174;SDS011;9212;50.894;16.714;2022-10-16T04:47:13;10.37;;;4.00;;
18174;SDS011;9212;50.894;16.714;2022-10-16T04:49:41;4.77;;;3.43;;
18174;SDS011;9212;50.894;16.714;2022-10-16T04:52:08;6.77;;;3.83;;
18174;SDS011;9212;50.894;16.714;2022-10-16T04:54:35;5.63;;;3.60;;
18174;SDS011;9212;50.894;16.714;2022-10-16T04:57:02;7.57;;;4.00;;
18174;SDS011;9212;50.894;16.714;2022-10-16T04:59:30;5.60;;;3.53;;
18174;SDS011;9212;50.894;16.714;2022-10-16T05:01:59;6.60;;;3.73;;
18174;SDS011;9212;50.894;16.714;2022-10-16T05:04:26;7.73;;;4.03;;
18174;SDS011;9212;50.894;16.714;2022-10-16T05:06:53;13.90;;;3.50;;
18174;SDS011;9212;50.894;16.714;2022-10-16T05:09:21;8.97;;;4.20;;
18174;SDS011;9212;50.894;16.714;2022-10-16T05:11:48;8.37;;;3.93;;
18174;SDS011;9212;50.894;16.714;2022-10-16T05:14:15;5.87;;;3.83;;
18174;SDS011;9212;50.894;16.714;2022-10-16T05:16:42;8.07;;;4.23;;
18174;SDS011;9212;50.894;16.714;2022-10-16T05:19:12;10.47;;;4.00;;
18174;SDS011;9212;50.894;16.714;2022-10-16T05:21:39;12.27;;;4.37;;
18174;SDS011;9212;50.894;16.714;2022-10-16T05:24:06;8.80;;;4.43;;
18174;SDS011;9212;50.894;16.714;2022-10-16T05:26:34;6.43;;;3.93;;
18174;SDS011;9212;50.894;16.714;2022-10-16T05:29:01;6.80;;;3.90;;
18174;SDS011;9212;50.894;16.714;2022-10-16T05:31:28;6.87;;;4.43;;
18174;SDS011;9212;50.894;16.714;2022-10-16T05:33:57;7.63;;;4.07;;
18174;SDS011;9212;50.894;16.714;2022-10-16T05:36:26;8.00;;;4.30;;
18174;SDS011;9212;50.894;16.714;2022-10-16T05:38:54;7.07;;;4.50;;
18174;SDS011;9212;50.894;16.714;2022-10-16T05:41:21;6.43;;;4.37;;
18174;SDS011;9212;50.894;16.714;2022-10-16T05:43:50;5.80;;;4.13;;
18174;SDS011;9212;50.894;16.714;2022-10-16T05:46:18;6.33;;;4.03;;
18174;SDS011;9212;50.894;16.714;2022-10-16T05:48:45;6.37;;;4.37;;
18174;SDS011;9212;50.894;16.714;2022-10-16T05:51:13;6.63;;;4.23;;
18174;SDS011;9212;50.894;16.714;2022-10-16T05:53:42;9.13;;;4.13;;
18174;SDS011;9212;50.894;16.714;2022-10-16T05:56:09;5.23;;;3.57;;
18174;SDS011;9212;50.894;16.714;2022-10-16T05:58:38;9.23;;;4.23;;
18174;SDS011;9212;50.894;16.714;2022-10-16T06:01:07;10.90;;;4.10;;
18174;SDS011;9212;50.894;16.714;2022-10-16T06:03:36;6.70;;;3.73;;
18174;SDS011;9212;50.894;16.714;2022-10-16T06:06:07;6.87;;;3.70;;
18174;SDS011;9212;50.894;16.714;2022-10-16T06:08:35;4.07;;;3.03;;
18174;SDS011;9212;50.894;16.714;2022-10-16T06:11:04;4.30;;;3.23;;
18174;SDS011;9212;50.894;16.714;2022-10-16T06:13:33;7.63;;;3.60;;
18174;SDS011;9212;50.894;16.714;2022-10-16T06:16:00;9.23;;;3.70;;
18174;SDS011;9212;50.894;16.714;2022-10-16T06:18:29;4.47;;;3.47;;
18174;SDS011;9212;50.894;16.714;2022-10-16T06:20:56;6.00;;;4.10;;
18174;SDS011;9212;50.894;16.714;2022-10-16T06:23:24;6.50;;;4.00;;
18174;SDS011;9212;50.894;16.714;2022-10-16T06:25:51;9.35;;;4.00;;
18174;SDS011;9212;50.894;16.714;2022-10-16T06:28:20;6.77;;;4.60;;
18174;SDS011;9212;50.894;16.714;2022-10-16T06:30:47;6.55;;;4.60;;
18174;SDS011;9212;50.894;16.714;2022-10-16T06:33:14;9.80;;;3.93;;
18174;SDS011;9212;50.894;16.714;2022-10-16T06:35:41;5.25;;;3.92;;
18174;SDS011;9212;50.894;16.714;2022-10-16T06:38:09;5.47;;;4.18;;
18174;SDS011;9212;50.894;16.714;2022-10-16T06:40:36;8.45;;;4.55;;
18174;SDS011;9212;50.894;16.714;2022-10-16T06:43:03;4.28;;;3.88;;
18174;SDS011;9212;50.894;16.714;2022-10-16T06:45:32;4.95;;;3.85;;
18174;SDS011;9212;50.894;16.714;2022-10-16T06:47:59;4.88;;;3.55;;
18174;SDS011;9212;50.894;16.714;2022-10-16T06:50:26;3.58;;;3.00;;
18174;SDS011;9212;50.894;16.714;2022-10-16T06:52:53;3.53;;;3.22;;
18174;SDS011;9212;50.894;16.714;2022-10-16T06:55:21;4.20;;;2.97;;
18174;SDS011;9212;50.894;16.714;2022-10-16T06:57:48;4.57;;;3.22;;
18174;SDS011;9212;50.894;16.714;2022-10-16T07:00:15;4.35;;;3.15;;
18174;SDS011;9212;50.894;16.714;2022-10-16T07:02:44;3.67;;;2.88;;
18174;SDS011;9212;50.894;16.714;2022-10-16T07:05:11;2.55;;;2.35;;
18174;SDS011;9212;50.894;16.714;2022-10-16T07:07:38;3.80;;;2.55;;
18174;SDS011;9212;50.894;16.714;2022-10-16T07:10:05;3.08;;;2.60;;
18174;SDS011;9212;50.894;16.714;2022-10-16T07:12:33;4.78;;;2.30;;
18174;SDS011;9212;50.894;16.714;2022-10-16T07:15:00;2.55;;;2.33;;
18174;SDS011;9212;50.894;16.714;2022-10-16T07:17:27;5.10;;;2.50;;
18174;SDS011;9212;50.894;16.714;2022-10-16T07:19:56;2.45;;;2.25;;
18174;SDS011;9212;50.894;16.714;2022-10-16T07:22:23;2.35;;;2.15;;
18174;SDS011;9212;50.894;16.714;2022-10-16T07:24:50;6.53;;;1.95;;
18174;SDS011;9212;50.894;16.714;2022-10-16T07:27:17;2.20;;;2.00;;
18174;SDS011;9212;50.894;16.714;2022-10-16T07:29:47;1.98;;;1.60;;
18174;SDS011;9212;50.894;16.714;2022-10-16T07:32:14;4.38;;;2.28;;
18174;SDS011;9212;50.894;16.714;2022-10-16T07:34:41;1.98;;;1.83;;
18174;SDS011;9212;50.894;16.714;2022-10-16T07:37:10;1.90;;;1.80;;
18174;SDS011;9212;50.894;16.714;2022-10-16T07:39:37;1.70;;;1.60;;
18174;SDS011;9212;50.894;16.714;2022-10-16T07:42:04;3.00;;;1.60;;
18174;SDS011;9212;50.894;16.714;2022-10-16T07:44:32;1.67;;;1.58;;
18174;SDS011;9212;50.894;16.714;2022-10-16T07:47:00;4.38;;;1.77;;
18174;SDS011;9212;50.894;16.714;2022-10-16T07:49:27;2.17;;;1.98;;
18174;SDS011;9212;50.894;16.714;2022-10-16T07:51:55;1.98;;;1.80;;
18174;SDS011;9212;50.894;16.714;2022-10-16T07:54:24;2.28;;;1.83;;
18174;SDS011;9212;50.894;16.714;2022-10-16T07:56:51;1.65;;;1.55;;
18174;SDS011;9212;50.894;16.714;2022-10-16T07:59:18;1.83;;;1.73;;
18174;SDS011;9212;50.894;16.714;2022-10-16T08:01:45;1.75;;;1.65;;
18174;SDS011;9212;50.894;16.714;2022-10-16T08:04:12;2.00;;;1.90;;
18174;SDS011;9212;50.894;16.714;2022-10-16T08:06:39;2.20;;;2.00;;
18174;SDS011;9212;50.894;16.714;2022-10-16T08:09:07;3.40;;;1.80;;
18174;SDS011;9212;50.894;16.714;2022-10-16T08:11:36;1.98;;;1.77;;
18174;SDS011;9212;50.894;16.714;2022-10-16T08:14:03;2.10;;;2.00;;
18174;SDS011;9212;50.894;16.714;2022-10-16T08:16:30;2.95;;;1.95;;
18174;SDS011;9212;50.894;16.714;2022-10-16T08:18:58;2.47;;;2.28;;
18174;SDS011;9212;50.894;16.714;2022-10-16T08:21:25;3.17;;;2.30;;
18174;SDS011;9212;50.894;16.714;2022-10-16T08:23:52;3.63;;;2.08;;
18174;SDS011;9212;50.894;16.714;2022-10-16T08:26:20;1.90;;;1.80;;
18174;SDS011;9212;50.894;16.714;2022-10-16T08:28:50;1.90;;;1.80;;
18174;SDS011;9212;50.894;16.714;2022-10-16T08:31:17;2.40;;;2.05;;
18174;SDS011;9212;50.894;16.714;2022-10-16T08:33:44;2.40;;;2.20;;
18174;SDS011;9212;50.894;16.714;2022-10-16T08:36:13;2.17;;;1.98;;
18174;SDS011;9212;50.894;16.714;2022-10-16T08:38:41;2.45;;;2.25;;
18174;SDS011;9212;50.894;16.714;2022-10-16T08:41:16;3.65;;;2.63;;
18174;SDS011;9212;50.894;16.714;2022-10-16T08:44:03;5.15;;;3.10;;
18174;SDS011;9212;50.894;16.714;2022-10-16T08:46:43;3.50;;;2.88;;
18174;SDS011;9212;50.894;16.714;2022-10-16T08:49:16;3.72;;;2.30;;
18174;SDS011;9212;50.894;16.714;2022-10-16T08:51:43;2.58;;;2.38;;
18174;SDS011;9212;50.894;16.714;2022-10-16T08:54:15;2.50;;;2.10;;
18174;SDS011;9212;50.894;16.714;2022-10-16T08:56:53;2.58;;;2.35;;
18174;SDS011;9212;50.894;16.714;2022-10-16T08:59:23;2.15;;;2.05;;
18174;SDS011;9212;50.894;16.714;2022-10-16T09:01:50;2.40;;;2.20;;
18174;SDS011;9212;50.894;16.714;2022-10-16T09:04:33;2.80;;;2.60;;
18174;SDS011;9212;50.894;16.714;2022-10-16T09:07:15;3.17;;;2.72;;
18174;SDS011;9212;50.894;16.714;2022-10-16T09:09:59;5.00;;;2.30;;
18174;SDS011;9212;50.894;16.714;2022-10-16T09:12:33;2.67;;;2.47;;
18174;SDS011;9212;50.894;16.714;2022-10-16T09:15:20;2.95;;;2.63;;
18174;SDS011;9212;50.894;16.714;2022-10-16T09:17:55;2.53;;;2.33;;
18174;SDS011;9212;50.894;16.714;2022-10-16T09:20:33;2.50;;;2.30;;
18174;SDS011;9212;50.894;16.714;2022-10-16T09:23:14;3.13;;;2.55;;
18174;SDS011;9212;50.894;16.714;2022-10-16T09:25:43;4.20;;;2.67;;
18174;SDS011;9212;50.894;16.714;2022-10-16T09:28:14;3.17;;;2.20;;
18174;SDS011;9212;50.894;16.714;2022-10-16T09:30:42;3.85;;;2.63;;
18174;SDS011;9212;50.894;16.714;2022-10-16T09:33:10;3.05;;;2.60;;
18174;SDS011;9212;50.894;16.714;2022-10-16T09:35:40;2.92;;;2.30;;
18174;SDS011;9212;50.894;16.714;2022-10-16T09:38:08;2.63;;;2.35;;
18174;SDS011;9212;50.894;16.714;2022-10-16T09:40:36;2.20;;;2.00;;
18174;SDS011;9212;50.894;16.714;2022-10-16T09:43:14;1.98;;;1.83;;
18174;SDS011;9212;50.894;16.714;2022-10-16T09:46:00;1.70;;;1.63;;
18174;SDS011;9212;50.894;16.714;2022-10-16T09:48:31;2.08;;;1.98;;
18174;SDS011;9212;50.894;16.714;2022-10-16T09:51:04;2.35;;;2.15;;
18174;SDS011;9212;50.894;16.714;2022-10-16T09:53:39;1.95;;;1.85;;
18174;SDS011;9212;50.894;16.714;2022-10-16T09:56:09;2.85;;;2.05;;
18174;SDS011;9212;50.894;16.714;2022-10-16T09:58:41;2.20;;;2.10;;
18174;SDS011;9212;50.894;16.714;2022-10-16T10:01:13;2.25;;;2.13;;
18174;SDS011;9212;50.894;16.714;2022-10-16T10:03:41;1.73;;;1.63;;
18174;SDS011;9212;50.894;16.714;2022-10-16T10:06:17;2.00;;;1.90;;
18174;SDS011;9212;50.894;16.714;2022-10-16T10:08:55;2.58;;;2.38;;
18174;SDS011;9212;50.894;16.714;2022-10-16T10:11:41;2.20;;;2.00;;
18174;SDS011;9212;50.894;16.714;2022-10-16T10:17:16;3.53;;;2.10;;
18174;SDS011;9212;50.894;16.714;2022-10-16T10:19:52;2.20;;;2.00;;
18174;SDS011;9212;50.894;16.714;2022-10-16T10:22:25;5.15;;;2.10;;
18174;SDS011;9212;50.894;16.714;2022-10-16T10:24:58;3.25;;;2.80;;
18174;SDS011;9212;50.894;16.714;2022-10-16T10:27:59;5.63;;;2.85;;
18174;SDS011;9212;50.894;16.714;2022-10-16T10:30:44;3.08;;;2.78;;
18174;SDS011;9212;50.894;16.714;2022-10-16T10:33:20;4.00;;;2.90;;
18174;SDS011;9212;50.894;16.714;2022-10-16T10:35:56;2.55;;;2.35;;
18174;SDS011;9212;50.894;16.714;2022-10-16T10:38:34;4.32;;;3.35;;
18174;SDS011;9212;50.894;16.714;2022-10-16T10:41:12;5.10;;;3.08;;
18174;SDS011;9212;50.894;16.714;2022-10-16T10:43:53;3.45;;;2.63;;
18174;SDS011;9212;50.894;16.714;2022-10-16T10:46:28;2.47;;;2.33;;
18174;SDS011;9212;50.894;16.714;2022-10-16T10:49:10;3.25;;;2.83;;
18174;SDS011;9212;50.894;16.714;2022-10-16T10:51:58;3.08;;;2.78;;
18174;SDS011;9212;50.894;16.714;2022-10-16T10:54:32;4.07;;;3.58;;
18174;SDS011;9212;50.894;16.714;2022-10-16T10:57:07;4.50;;;2.92;;
18174;SDS011;9212;50.894;16.714;2022-10-16T10:59:51;3.38;;;3.08;;
18174;SDS011;9212;50.894;16.714;2022-10-16T11:02:31;4.47;;;3.10;;
18174;SDS011;9212;50.894;16.714;2022-10-16T11:05:10;3.72;;;2.65;;
18174;SDS011;9212;50.894;16.714;2022-10-16T11:07:57;3.03;;;2.72;;
18174;SDS011;9212;50.894;16.714;2022-10-16T11:10:27;2.78;;;2.53;;
18174;SDS011;9212;50.894;16.714;2022-10-16T11:13:00;3.75;;;2.90;;
18174;SDS011;9212;50.894;16.714;2022-10-16T11:15:45;3.38;;;2.88;;
18174;SDS011;9212;50.894;16.714;2022-10-16T11:18:16;3.45;;;2.95;;
18174;SDS011;9212;50.894;16.714;2022-10-16T11:20:51;3.25;;;2.50;;
18174;SDS011;9212;50.894;16.714;2022-10-16T11:23:22;2.80;;;2.60;;
18174;SDS011;9212;50.894;16.714;2022-10-16T11:25:52;3.13;;;2.42;;
18174;SDS011;9212;50.894;16.714;2022-10-16T11:28:23;4.13;;;2.80;;
18174;SDS011;9212;50.894;16.714;2022-10-16T11:30:57;2.53;;;2.33;;
18174;SDS011;9212;50.894;16.714;2022-10-16T11:33:29;3.70;;;2.70;;
18174;SDS011;9212;50.894;16.714;2022-10-16T11:36:06;3.38;;;2.78;;
18174;SDS011;9212;50.894;16.714;2022-10-16T11:38:39;4.03;;;2.58;;
18174;SDS011;9212;50.894;16.714;2022-10-16T11:41:15;2.47;;;2.28;;
18174;SDS011;9212;50.894;16.714;2022-10-16T11:43:48;2.58;;;2.38;;
18174;SDS011;9212;50.894;16.714;2022-10-16T11:46:22;3.35;;;2.75;;
18174;SDS011;9212;50.894;16.714;2022-10-16T11:48:54;2.92;;;2.28;;
18174;SDS011;9212;50.894;16.714;2022-10-16T11:51:32;3.85;;;2.70;;
18174;SDS011;9212;50.894;16.714;2022-10-16T11:54:04;4.05;;;2.72;;
18174;SDS011;9212;50.894;16.714;2022-10-16T11:56:41;2.50;;;2.30;;
18174;SDS011;9212;50.894;16.714;2022-10-16T11:59:13;3.33;;;3.03;;
18174;SDS011;9212;50.894;16.714;2022-10-16T12:01:47;3.47;;;3.17;;
18174;SDS011;9212;50.894;16.714;2022-10-16T12:04:20;3.38;;;3.08;;
18174;SDS011;9212;50.894;16.714;2022-10-16T12:06:55;2.70;;;2.50;;
18174;SDS011;9212;50.894;16.714;2022-10-16T12:09:30;3.63;;;2.80;;
18174;SDS011;9212;50.894;16.714;2022-10-16T12:11:58;3.95;;;3.22;;
18174;SDS011;9212;50.894;16.714;2022-10-16T12:14:36;3.75;;;3.35;;
18174;SDS011;9212;50.894;16.714;2022-10-16T12:19:58;3.80;;;3.40;;
18174;SDS011;9212;50.894;16.714;2022-10-16T12:22:29;5.32;;;3.75;;
18174;SDS011;9212;50.894;16.714;2022-10-16T12:24:57;5.28;;;4.00;;
18174;SDS011;9212;50.894;16.714;2022-10-16T12:27:27;5.13;;;4.20;;
18174;SDS011;9212;50.894;16.714;2022-10-16T12:29:56;4.30;;;3.90;;
18174;SDS011;9212;50.894;16.714;2022-10-16T12:32:30;6.72;;;3.53;;
18174;SDS011;9212;50.894;16.714;2022-10-16T12:34:59;4.40;;;3.72;;
18174;SDS011;9212;50.894;16.714;2022-10-16T12:37:29;4.13;;;3.63;;
18174;SDS011;9212;50.894;16.714;2022-10-16T12:39:59;3.53;;;3.20;;
18174;SDS011;9212;50.894;16.714;2022-10-16T12:42:38;4.28;;;3.58;;
18174;SDS011;9212;50.894;16.714;2022-10-16T12:45:13;4.03;;;3.60;;
18174;SDS011;9212;50.894;16.714;2022-10-16T12:47:54;3.85;;;3.45;;
18174;SDS011;9212;50.894;16.714;2022-10-16T12:50:23;5.43;;;3.72;;
18174;SDS011;9212;50.894;16.714;2022-10-16T12:52:53;3.70;;;3.40;;
18174;SDS011;9212;50.894;16.714;2022-10-16T12:55:21;4.85;;;3.92;;
18174;SDS011;9212;50.894;16.714;2022-10-16T12:57:56;4.00;;;3.42;;
18174;SDS011;9212;50.894;16.714;2022-10-16T13:00:35;4.15;;;3.80;;
18174;SDS011;9212;50.894;16.714;2022-10-16T13:06:23;3.40;;;3.10;;
18174;SDS011;9212;50.894;16.714;2022-10-16T13:09:05;6.05;;;3.15;;
18174;SDS011;9212;50.894;16.714;2022-10-16T13:11:49;4.70;;;3.58;;
18174;SDS011;9212;50.894;16.714;2022-10-16T13:14:34;3.22;;;3.00;;
18174;SDS011;9212;50.894;16.714;2022-10-16T13:17:19;5.60;;;4.60;;
18174;SDS011;9212;50.894;16.714;2022-10-16T13:19:53;6.28;;;3.88;;
18174;SDS011;9212;50.894;16.714;2022-10-16T13:22:29;4.43;;;4.00;;
18174;SDS011;9212;50.894;16.714;2022-10-16T13:25:05;5.03;;;3.80;;
18174;SDS011;9212;50.894;16.714;2022-10-16T13:27:46;5.68;;;4.25;;
18174;SDS011;9212;50.894;16.714;2022-10-16T13:30:21;5.05;;;3.80;;
18174;SDS011;9212;50.894;16.714;2022-10-16T13:33:03;5.68;;;4.20;;
18174;SDS011;9212;50.894;16.714;2022-10-16T13:35:34;3.67;;;3.38;;
18174;SDS011;9212;50.894;16.714;2022-10-16T13:38:12;4.15;;;3.17;;
18174;SDS011;9212;50.894;16.714;2022-10-16T13:40:55;4.60;;;3.90;;
18174;SDS011;9212;50.894;16.714;2022-10-16T13:43:24;4.43;;;3.85;;
18174;SDS011;9212;50.894;16.714;2022-10-16T13:45:56;4.93;;;3.70;;
18174;SDS011;9212;50.894;16.714;2022-10-16T13:48:28;5.38;;;3.90;;
18174;SDS011;9212;50.894;16.714;2022-10-16T13:51:03;4.78;;;3.63;;
18174;SDS011;9212;50.894;16.714;2022-10-16T13:53:32;6.15;;;4.13;;
18174;SDS011;9212;50.894;16.714;2022-10-16T13:56:03;3.80;;;3.50;;
18174;SDS011;9212;50.894;16.714;2022-10-16T13:58:31;5.35;;;4.03;;
18174;SDS011;9212;50.894;16.714;2022-10-16T14:00:59;4.90;;;3.50;;
18174;SDS011;9212;50.894;16.714;2022-10-16T14:03:28;4.80;;;3.58;;
18174;SDS011;9212;50.894;16.714;2022-10-16T14:05:56;4.63;;;3.67;;
18174;SDS011;9212;50.894;16.714;2022-10-16T14:08:26;8.18;;;4.50;;
18174;SDS011;9212;50.894;16.714;2022-10-16T14:10:55;3.75;;;3.17;;
18174;SDS011;9212;50.894;16.714;2022-10-16T14:13:28;4.45;;;3.88;;
18174;SDS011;9212;50.894;16.714;2022-10-16T14:15:57;5.15;;;4.43;;
18174;SDS011;9212;50.894;16.714;2022-10-16T14:18:28;5.43;;;4.20;;
18174;SDS011;9212;50.894;16.714;2022-10-16T14:20:55;4.95;;;4.40;;
18174;SDS011;9212;50.894;16.714;2022-10-16T14:23:30;5.03;;;4.30;;
18174;SDS011;9212;50.894;16.714;2022-10-16T14:29:01;7.40;;;5.55;;
18174;SDS011;9212;50.894;16.714;2022-10-16T14:31:35;6.72;;;4.50;;
18174;SDS011;9212;50.894;16.714;2022-10-16T14:34:02;7.05;;;4.75;;
18174;SDS011;9212;50.894;16.714;2022-10-16T14:36:29;8.40;;;5.20;;
18174;SDS011;9212;50.894;16.714;2022-10-16T14:38:59;7.20;;;5.03;;
18174;SDS011;9212;50.894;16.714;2022-10-16T14:41:28;5.55;;;4.72;;
18174;SDS011;9212;50.894;16.714;2022-10-16T14:44:00;7.32;;;4.90;;
18174;SDS011;9212;50.894;16.714;2022-10-16T14:46:30;6.80;;;5.72;;
18174;SDS011;9212;50.894;16.714;2022-10-16T14:49:00;6.32;;;5.10;;
18174;SDS011;9212;50.894;16.714;2022-10-16T14:51:31;5.93;;;5.28;;
18174;SDS011;9212;50.894;16.714;2022-10-16T14:53:58;7.57;;;6.00;;
18174;SDS011;9212;50.894;16.714;2022-10-16T14:56:28;7.55;;;6.00;;
18174;SDS011;9212;50.894;16.714;2022-10-16T14:58:57;8.88;;;6.30;;
18174;SDS011;9212;50.894;16.714;2022-10-16T15:01:25;6.13;;;5.53;;
18174;SDS011;9212;50.894;16.714;2022-10-16T15:03:53;7.47;;;5.15;;
18174;SDS011;9212;50.894;16.714;2022-10-16T15:06:20;7.22;;;5.50;;
18174;SDS011;9212;50.894;16.714;2022-10-16T15:08:48;6.68;;;5.53;;
18174;SDS011;9212;50.894;16.714;2022-10-16T15:11:16;7.65;;;5.63;;
18174;SDS011;9212;50.894;16.714;2022-10-16T15:13:44;5.82;;;5.28;;
18174;SDS011;9212;50.894;16.714;2022-10-16T15:16:13;8.05;;;5.50;;
18174;SDS011;9212;50.894;16.714;2022-10-16T15:18:42;11.05;;;6.05;;
18174;SDS011;9212;50.894;16.714;2022-10-16T15:21:11;9.50;;;6.20;;